METAR Data
IDs: Format: Raw Decoded Include TAF

Data at: 0212 UTC 25 Feb 2021

NZCH 250200Z AUTO 19010KT 150V210 9999 BKN029/// OVC050/// 18/11 Q1023 NOSIG